Villa Clarita, Puerto Rico
Current Conditions -  °F | °C
As of 3:53 AM on Monday 20 Oct 2014 (Local Time) from TJNR Reporting Station
Broken Clouds Broken Clouds  
Wind Chill: 76°   Ceiling: 4100
Heat Index: 76°   Visibility: 10mi
Dew Point: 74°   Wind: 0mph
Humidity: 94%   Direction: NA
Pressure: 29.94"   Gusts: NA
Location:  18.3304°N, 65.6573°W
Report Text: TJNR 200753Z AUTO 00000KT 10SM SCT023 SCT029 BKN041 24/23 A2994 RMK AO2 SLP137 T02440233 $
Loading
Personal Weather Stations






























Interactive Weather Map New forecast layout! Learn more

10-Day Weather Forecast

Advertisements
Track Severe Weather on mobile